createdAt,value
2017-06-15T00:00:51.706Z,99.99
2017-06-15T00:01:51.014Z,99.99
2017-06-15T00:02:51.204Z,99.99
2017-06-15T00:03:50.861Z,99.99
2017-06-15T00:04:51.177Z,99.99
2017-06-15T00:05:51.168Z,99.99
2017-06-15T00:06:51.144Z,99.99
2017-06-15T00:07:51.588Z,99.99
2017-06-15T00:08:51.168Z,99.99
2017-06-15T00:09:51.831Z,99.99
2017-06-15T00:10:51.206Z,99.99
2017-06-15T00:11:50.913Z,99.99
2017-06-15T00:12:50.800Z,99.99
2017-06-15T00:13:50.792Z,99.99
2017-06-15T00:14:50.785Z,99.99
2017-06-15T00:15:50.777Z,99.99
2017-06-15T00:16:50.769Z,99.99
2017-06-15T00:17:51.089Z,99.99
2017-06-15T00:18:50.758Z,99.99
2017-06-15T00:19:51.103Z,99.99
2017-06-15T00:20:50.741Z,99.99
2017-06-15T00:21:50.738Z,99.99
2017-06-15T00:22:51.629Z,99.99
2017-06-15T00:23:51.106Z,99.99
2017-06-15T00:24:51.069Z,99.99
2017-06-15T00:25:51.050Z,99.99
2017-06-15T00:26:51.030Z,99.99
2017-06-15T00:27:51.015Z,99.99
2017-06-15T00:28:50.688Z,99.99
2017-06-15T00:29:51.008Z,99.99
2017-06-15T00:30:51.055Z,99.99
2017-06-15T00:31:51.425Z,99.99
2017-06-15T00:32:50.984Z,99.99
2017-06-15T00:33:50.974Z,99.99
2017-06-15T00:34:50.969Z,99.99
2017-06-15T00:35:50.973Z,99.99
2017-06-15T00:36:50.957Z,99.99
2017-06-15T00:37:51.462Z,99.99
2017-06-15T00:38:50.614Z,99.99
2017-06-15T00:39:50.937Z,99.99
2017-06-15T00:40:51.448Z,99.99
2017-06-15T00:41:51.241Z,99.99
2017-06-15T00:42:50.924Z,99.99
2017-06-15T00:43:50.910Z,99.99
2017-06-15T00:44:50.898Z,99.99
2017-06-15T00:45:50.888Z,99.99
2017-06-15T00:46:50.583Z,99.99
2017-06-15T00:47:51.004Z,99.99
2017-06-15T00:48:51.363Z,99.99
2017-06-15T00:49:50.867Z,99.99
2017-06-15T00:50:50.872Z,99.99
2017-06-15T00:51:50.844Z,99.99
2017-06-15T00:52:50.680Z,99.99
2017-06-15T00:53:50.507Z,99.99
2017-06-15T00:54:50.737Z,99.99
2017-06-15T00:55:51.388Z,99.99
2017-06-15T00:56:51.360Z,99.99
2017-06-15T00:57:50.800Z,99.99
2017-06-15T00:58:50.792Z,99.99
2017-06-15T00:59:50.789Z,99.99
2017-06-15T01:00:50.795Z,99.99
2017-06-15T01:01:50.451Z,99.99
2017-06-15T01:02:50.766Z,99.99
2017-06-15T01:03:50.433Z,99.99
2017-06-15T01:04:50.761Z,99.99
2017-06-15T01:05:51.330Z,99.99
2017-06-15T01:06:51.119Z,99.99
2017-06-15T01:07:50.742Z,99.99
2017-06-15T01:08:50.741Z,99.99
2017-06-15T01:09:50.747Z,99.99
2017-06-15T01:10:50.611Z,99.99
2017-06-15T01:11:50.696Z,99.99
2017-06-15T01:12:50.707Z,99.99
2017-06-15T01:13:50.681Z,99.99
2017-06-15T01:14:50.671Z,99.99
2017-06-15T01:15:50.749Z,99.99
2017-06-15T01:16:50.658Z,99.99
2017-06-15T01:17:50.651Z,99.99
2017-06-15T01:18:50.321Z,99.99
2017-06-15T01:19:50.639Z,99.99
2017-06-15T01:20:50.644Z,99.99
2017-06-15T01:21:51.083Z,99.99
2017-06-15T01:22:50.966Z,99.99
2017-06-15T01:23:51.129Z,99.99
2017-06-15T01:24:50.596Z,99.99
2017-06-15T01:25:50.267Z,99.99
2017-06-15T01:26:50.277Z,99.99
2017-06-15T01:27:51.105Z,99.99
2017-06-15T01:28:50.569Z,99.99
2017-06-15T01:29:50.561Z,99.99
2017-06-15T01:30:50.549Z,99.99
2017-06-15T01:31:50.549Z,99.99
2017-06-15T01:32:50.215Z,99.99
2017-06-15T01:33:50.532Z,99.99
2017-06-15T01:34:50.523Z,99.99
2017-06-15T01:35:50.516Z,99.99
2017-06-15T01:36:50.900Z,99.99
2017-06-15T01:37:50.570Z,99.99
2017-06-15T01:38:50.980Z,99.99
2017-06-15T01:39:50.495Z,99.99
2017-06-15T01:40:50.490Z,99.99
2017-06-15T01:41:50.488Z,99.99
2017-06-15T01:42:50.157Z,99.99
2017-06-15T01:43:50.562Z,99.99
2017-06-15T01:44:50.284Z,99.99
2017-06-15T01:45:50.452Z,99.99
2017-06-15T01:46:50.108Z,99.99
2017-06-15T01:47:50.402Z,99.99
2017-06-15T01:48:50.561Z,99.99
2017-06-15T01:49:50.084Z,99.99
2017-06-15T01:50:50.394Z,99.99
2017-06-15T01:51:50.404Z,99.99
2017-06-15T01:52:50.191Z,99.99
2017-06-15T01:53:50.529Z,99.99
2017-06-15T01:54:50.122Z,99.99
2017-06-15T01:55:50.047Z,99.99
2017-06-15T01:56:50.055Z,99.99
2017-06-15T01:57:50.524Z,99.99
2017-06-15T01:58:50.336Z,99.99
2017-06-15T01:59:50.006Z,99.99
2017-06-15T02:00:50.680Z,99.99
2017-06-15T02:01:50.554Z,99.99
2017-06-15T02:02:49.993Z,99.99
2017-06-15T02:03:50.298Z,99.99
2017-06-15T02:04:50.305Z,99.99
2017-06-15T02:05:50.038Z,99.99
2017-06-15T02:06:50.937Z,99.99
2017-06-15T02:07:49.948Z,99.99
2017-06-15T02:08:50.334Z,99.99
2017-06-15T02:09:50.269Z,99.99
2017-06-15T02:10:50.244Z,99.99
2017-06-15T02:11:50.241Z,99.99
2017-06-15T02:12:50.046Z,99.99
2017-06-15T02:13:50.338Z,99.99
2017-06-15T02:14:50.485Z,99.99
2017-06-15T02:15:50.210Z,99.99
2017-06-15T02:16:50.249Z,99.99
2017-06-15T02:17:50.188Z,99.99
2017-06-15T02:18:50.178Z,99.99
2017-06-15T02:19:49.946Z,99.99
2017-06-15T02:20:50.162Z,99.99
2017-06-15T02:21:49.854Z,99.99
2017-06-15T02:22:49.871Z,99.99
2017-06-15T02:23:50.139Z,99.99
2017-06-15T02:24:50.130Z,99.99
2017-06-15T02:25:50.165Z,99.99
2017-06-15T02:26:50.117Z,99.99
2017-06-15T02:27:49.794Z,99.99
2017-06-15T02:28:50.101Z,99.99
2017-06-15T02:29:50.606Z,99.99
2017-06-15T02:30:50.083Z,99.99
2017-06-15T02:31:50.075Z,99.99
2017-06-15T02:32:50.067Z,99.99
2017-06-15T02:33:50.071Z,99.99
2017-06-15T02:34:49.983Z,99.99
2017-06-15T02:35:50.560Z,99.99
2017-06-15T02:36:50.595Z,99.99
2017-06-15T02:37:49.706Z,99.99
2017-06-15T02:38:50.019Z,99.99
2017-06-15T02:39:50.442Z,99.99
2017-06-15T02:40:49.683Z,99.99
2017-06-15T02:41:49.673Z,99.99
2017-06-15T02:42:49.988Z,99.99
2017-06-15T02:43:49.981Z,99.99
2017-06-15T02:44:50.417Z,99.99
2017-06-15T02:45:50.545Z,99.99
2017-06-15T02:46:49.825Z,99.99
2017-06-15T02:47:49.948Z,99.99
2017-06-15T02:48:49.939Z,99.99
2017-06-15T02:49:50.407Z,99.99
2017-06-15T02:50:49.924Z,99.99
2017-06-15T02:51:49.912Z,99.99
2017-06-15T02:52:49.906Z,99.99
2017-06-15T02:53:49.906Z,99.99
2017-06-15T02:54:49.912Z,99.99
2017-06-15T02:55:49.959Z,99.99
2017-06-15T02:56:49.718Z,99.99
2017-06-15T02:57:49.867Z,99.99
2017-06-15T02:58:49.817Z,99.99
2017-06-15T02:59:49.729Z,99.99
2017-06-15T03:00:49.998Z,99.99
2017-06-15T03:01:49.837Z,99.99
2017-06-15T03:02:50.274Z,99.99
2017-06-15T03:03:50.008Z,99.99
2017-06-15T03:04:49.944Z,99.99
2017-06-15T03:05:49.802Z,99.99
2017-06-15T03:06:49.795Z,99.99
2017-06-15T03:07:49.699Z,99.99
2017-06-15T03:08:49.842Z,99.99
2017-06-15T03:09:49.751Z,99.99
2017-06-15T03:10:49.993Z,99.99
2017-06-15T03:11:49.941Z,99.99
2017-06-15T03:12:49.741Z,99.99
2017-06-15T03:13:49.735Z,99.99
2017-06-15T03:14:49.767Z,99.99
2017-06-15T03:15:50.035Z,99.99
2017-06-15T03:16:49.711Z,99.99
2017-06-15T03:17:50.125Z,99.99
2017-06-15T03:18:50.376Z,99.99
2017-06-15T03:19:49.516Z,99.99
2017-06-15T03:20:49.359Z,99.99
2017-06-15T03:21:49.668Z,99.99
2017-06-15T03:22:49.681Z,99.99
2017-06-15T03:23:49.980Z,99.99
2017-06-15T03:24:49.832Z,99.99
2017-06-15T03:25:49.314Z,99.99
2017-06-15T03:26:49.629Z,99.99
2017-06-15T03:27:49.622Z,99.99
2017-06-15T03:28:49.614Z,99.99
2017-06-15T03:29:49.282Z,99.99
2017-06-15T03:30:49.757Z,99.99
2017-06-15T03:31:49.586Z,99.99
2017-06-15T03:32:49.578Z,99.99
2017-06-15T03:33:49.576Z,99.99
2017-06-15T03:34:49.242Z,99.99
2017-06-15T03:35:49.846Z,99.99
2017-06-15T03:36:49.534Z,99.99
2017-06-15T03:37:49.539Z,99.99
2017-06-15T03:38:50.098Z,99.99
2017-06-15T03:39:49.549Z,99.99
2017-06-15T03:40:49.510Z,99.99
2017-06-15T03:41:49.187Z,99.99
2017-06-15T03:42:49.496Z,99.99
2017-06-15T03:43:49.928Z,99.99
2017-06-15T03:44:49.697Z,99.99
2017-06-15T03:45:49.612Z,99.99
2017-06-15T03:46:49.144Z,99.99
2017-06-15T03:47:49.134Z,99.99
2017-06-15T03:48:49.128Z,99.99
2017-06-15T03:49:49.443Z,99.99
2017-06-15T03:50:50.126Z,99.99
2017-06-15T03:51:49.963Z,99.99
2017-06-15T03:52:49.117Z,99.99
2017-06-15T03:53:49.409Z,99.99
2017-06-15T03:54:49.400Z,99.99
2017-06-15T03:55:49.400Z,99.99
2017-06-15T03:56:49.385Z,99.99
2017-06-15T03:57:49.924Z,99.99
2017-06-15T03:58:49.444Z,99.99
2017-06-15T03:59:49.892Z,99.99
2017-06-15T04:00:49.398Z,99.99
2017-06-15T04:01:49.349Z,99.99
2017-06-15T04:02:49.334Z,99.99
2017-06-15T04:03:49.427Z,99.99
2017-06-15T04:04:49.358Z,99.99
2017-06-15T04:05:49.466Z,99.99
2017-06-15T04:06:49.304Z,99.99
2017-06-15T04:07:48.976Z,99.99
2017-06-15T04:08:49.307Z,99.99
2017-06-15T04:09:49.283Z,99.99
2017-06-15T04:10:49.753Z,99.99
2017-06-15T04:11:49.630Z,99.99
2017-06-15T04:12:49.258Z,99.99
2017-06-15T04:13:49.250Z,99.99
2017-06-15T04:14:48.944Z,99.99
2017-06-15T04:15:48.914Z,99.99
2017-06-15T04:16:49.610Z,99.99
2017-06-15T04:17:49.794Z,99.99
2017-06-15T04:18:48.891Z,99.99
2017-06-15T04:19:48.885Z,99.99
2017-06-15T04:20:48.876Z,99.99
2017-06-15T04:21:49.191Z,99.99
2017-06-15T04:22:48.861Z,99.99
2017-06-15T04:23:49.178Z,99.99
2017-06-15T04:24:49.231Z,99.99
2017-06-15T04:25:49.440Z,99.99
2017-06-15T04:26:49.238Z,99.99
2017-06-15T04:27:48.824Z,99.99
2017-06-15T04:28:48.818Z,99.99
2017-06-15T04:29:49.149Z,99.99
2017-06-15T04:30:49.133Z,99.99
2017-06-15T04:31:49.286Z,99.99
2017-06-15T04:32:49.509Z,99.99
2017-06-15T04:33:49.105Z,99.99
2017-06-15T04:34:49.095Z,99.99
2017-06-15T04:35:49.216Z,99.99
2017-06-15T04:36:49.396Z,99.99
2017-06-15T04:37:49.249Z,99.99
2017-06-15T04:38:48.743Z,99.99
2017-06-15T04:39:48.737Z,99.99
2017-06-15T04:40:49.063Z,99.99
2017-06-15T04:41:48.876Z,99.99
2017-06-15T04:42:48.718Z,99.99
2017-06-15T04:43:49.593Z,99.99
2017-06-15T04:44:49.079Z,99.99
2017-06-15T04:45:49.018Z,99.99
2017-06-15T04:46:49.012Z,99.99
2017-06-15T04:47:48.870Z,99.99
2017-06-15T04:48:49.355Z,99.99
2017-06-15T04:49:48.993Z,99.99
2017-06-15T04:50:48.984Z,99.99
2017-06-15T04:51:49.015Z,99.99
2017-06-15T04:52:48.992Z,99.99
2017-06-15T04:53:48.958Z,99.99
2017-06-15T04:54:49.026Z,99.99
2017-06-15T04:55:48.644Z,99.99
2017-06-15T04:56:48.984Z,99.99
2017-06-15T04:57:48.952Z,99.99
2017-06-15T04:58:48.636Z,99.99
2017-06-15T04:59:49.010Z,99.52
2017-06-15T05:00:48.927Z,98.57
2017-06-15T05:01:48.601Z,97.89
2017-06-15T05:02:48.916Z,96.42
2017-06-15T05:03:48.909Z,95.36
2017-06-15T05:04:48.978Z,94.89
2017-06-15T05:05:48.940Z,94.02
2017-06-15T05:06:48.895Z,93.84
2017-06-15T05:07:48.886Z,92.79
2017-06-15T05:08:48.881Z,93.16
2017-06-15T05:09:48.890Z,92.69
2017-06-15T05:10:48.886Z,92.25
2017-06-15T05:11:49.119Z,90.63
2017-06-15T05:12:48.862Z,88.72
2017-06-15T05:13:49.380Z,88.43
2017-06-15T05:14:48.846Z,86.52
2017-06-15T05:15:48.541Z,85.47
2017-06-15T05:16:48.839Z,85.03
2017-06-15T05:17:49.410Z,85.28
2017-06-15T05:18:49.362Z,85.71
2017-06-15T05:19:48.520Z,85.99
2017-06-15T05:20:48.831Z,84.84
2017-06-15T05:21:48.815Z,84.75
2017-06-15T05:22:48.809Z,83.5
2017-06-15T05:23:48.803Z,83.31
2017-06-15T05:24:48.919Z,83.5
2017-06-15T05:25:49.322Z,84.17
2017-06-15T05:26:48.467Z,83.98
2017-06-15T05:27:48.785Z,83.22
2017-06-15T05:28:48.460Z,83.31
2017-06-15T05:29:48.783Z,82.64
2017-06-15T05:30:48.452Z,81.63
2017-06-15T05:31:48.769Z,80.29
2017-06-15T05:32:48.763Z,79.14
2017-06-15T05:33:48.763Z,77.33
2017-06-15T05:34:49.242Z,77.17
2017-06-15T05:35:49.407Z,77.75
2017-06-15T05:36:48.747Z,76.98
2017-06-15T05:37:48.742Z,76.79
2017-06-15T05:38:48.418Z,75.45
2017-06-15T05:39:48.734Z,73.63
2017-06-15T05:40:48.747Z,73.19
2017-06-15T05:41:48.405Z,73.66
2017-06-15T05:42:48.727Z,74.43
2017-06-15T05:43:48.720Z,73.95
2017-06-15T05:44:48.717Z,73.86
2017-06-15T05:45:48.710Z,73.19
2017-06-15T05:46:48.711Z,73.28
2017-06-15T05:47:48.705Z,72.61
2017-06-15T05:48:48.701Z,72.32
2017-06-15T05:49:48.698Z,73.09
2017-06-15T05:50:48.697Z,72.8
2017-06-15T05:51:48.405Z,73.19
2017-06-15T05:52:48.684Z,71.94
2017-06-15T05:53:48.681Z,70.7
2017-06-15T05:54:48.434Z,69.58
2017-06-15T05:55:48.692Z,70.25
2017-06-15T05:56:48.673Z,70.15
2017-06-15T05:57:48.351Z,69.96
2017-06-15T05:58:48.668Z,70.35
2017-06-15T05:59:48.680Z,69.48
2017-06-15T06:00:48.340Z,69.68
2017-06-15T06:01:48.657Z,70.44
2017-06-15T06:02:48.669Z,70.54
2017-06-15T06:03:48.331Z,69.87
2017-06-15T06:04:48.697Z,69.48
2017-06-15T06:05:48.325Z,69.2
2017-06-15T06:06:48.644Z,68.95
2017-06-15T06:07:48.640Z,69.33
2017-06-15T06:08:48.315Z,69.04
2017-06-15T06:09:48.313Z,69.52
2017-06-15T06:10:48.635Z,69.52
2017-06-15T06:11:48.630Z,70
2017-06-15T06:12:48.326Z,70.48
2017-06-15T06:13:48.303Z,69.13
2017-06-15T06:14:48.300Z,68.85
2017-06-15T06:15:48.621Z,67.73
2017-06-15T06:16:48.617Z,66
2017-06-15T06:17:48.295Z,66
2017-06-15T06:18:48.621Z,66.19
2017-06-15T06:19:48.612Z,66.49
2017-06-15T06:20:48.607Z,66
2017-06-15T06:21:48.282Z,66.67
2017-06-15T06:22:48.606Z,67.44
2017-06-15T06:23:48.600Z,66.77
2017-06-15T06:24:48.596Z,66.19
2017-06-15T06:25:48.610Z,65.72
2017-06-15T06:26:48.276Z,64.37
2017-06-15T06:27:48.270Z,63.79
2017-06-15T06:28:48.266Z,62.84
2017-06-15T06:29:48.590Z,63.35
2017-06-15T06:30:48.603Z,63.92
2017-06-15T06:31:48.278Z,63.25
2017-06-15T06:32:48.584Z,62.29
2017-06-15T06:33:48.582Z,61.33
2017-06-15T06:34:48.592Z,59.51
2017-06-15T06:35:48.253Z,60.75
2017-06-15T06:36:48.587Z,60.28
2017-06-15T06:37:48.571Z,59.25
2017-06-15T06:38:48.573Z,59.16
2017-06-15T06:39:48.570Z,59.38
2017-06-15T06:40:48.250Z,57.39
2017-06-15T06:41:48.566Z,56.58
2017-06-15T06:42:48.244Z,52.04
2017-06-15T06:43:48.243Z,46.51
2017-06-15T06:44:48.565Z,43.85
2017-06-15T06:45:48.564Z,41.11
2017-06-15T06:46:48.567Z,37.38
2017-06-15T06:47:48.566Z,37.79
2017-06-15T06:48:48.579Z,37.15
2017-06-15T06:49:48.246Z,34.95
2017-06-15T06:50:48.572Z,32.26
2017-06-15T06:51:48.447Z,32.28
2017-06-15T06:52:48.578Z,29.19
2017-06-15T06:53:48.278Z,28.61
2017-06-15T06:54:48.582Z,28.33
2017-06-15T06:55:48.585Z,27.08
2017-06-15T06:56:48.266Z,25.81
2017-06-15T06:57:48.591Z,26.51
2017-06-15T06:58:48.607Z,25.63
2017-06-15T06:59:48.603Z,25.14
2017-06-15T07:00:48.606Z,25.34
2017-06-15T07:01:48.609Z,25.53
2017-06-15T07:02:48.620Z,25.74
2017-06-15T07:03:48.298Z,25.35
2017-06-15T07:04:48.633Z,24.58
2017-06-15T07:05:48.638Z,26.03
2017-06-15T07:06:48.319Z,24.68
2017-06-15T07:07:48.642Z,26.14
2017-06-15T07:08:48.649Z,27.61
2017-06-15T07:09:48.656Z,26.74
2017-06-15T07:10:48.660Z,23.63
2017-06-15T07:11:48.676Z,23.93
2017-06-15T07:12:48.353Z,24.63
2017-06-15T07:13:48.682Z,23.65
2017-06-15T07:14:48.367Z,23.86
2017-06-15T07:15:48.394Z,22.89
2017-06-15T07:16:48.704Z,21.92
2017-06-15T07:17:48.709Z,21.91
2017-06-15T07:18:48.716Z,22.59
2017-06-15T07:19:48.720Z,21.61
2017-06-15T07:20:48.729Z,21.51
2017-06-15T07:21:48.417Z,22.39
2017-06-15T07:22:48.745Z,21.31
2017-06-15T07:23:48.752Z,21.99
2017-06-15T07:24:48.458Z,22.28
2017-06-15T07:25:48.768Z,21.89
2017-06-15T07:26:48.777Z,21.42
2017-06-15T07:27:48.472Z,21.6
2017-06-15T07:28:48.797Z,22.19
2017-06-15T07:29:48.803Z,22.58
2017-06-15T07:30:48.809Z,23.16
2017-06-15T07:31:48.826Z,21.99
2017-06-15T07:32:48.825Z,22.66
2017-06-15T07:33:48.510Z,22.56
2017-06-15T07:34:48.839Z,23.25
2017-06-15T07:35:48.850Z,20.92
2017-06-15T07:36:48.858Z,21.5
2017-06-15T07:37:48.866Z,23.85
2017-06-15T07:38:48.882Z,23.47
2017-06-15T07:39:48.883Z,21.62
2017-06-15T07:40:48.893Z,22.5
2017-06-15T07:41:48.946Z,21.03
2017-06-15T07:42:48.908Z,21.41
2017-06-15T07:43:48.917Z,22
2017-06-15T07:44:48.604Z,21.61
2017-06-15T07:45:48.616Z,21.61
2017-06-15T07:46:48.946Z,22.2
2017-06-15T07:47:48.954Z,21.33
2017-06-15T07:48:48.960Z,22.02
2017-06-15T07:49:48.969Z,21.72
2017-06-15T07:50:48.978Z,21.23
2017-06-15T07:51:48.664Z,21.14
2017-06-15T07:52:48.672Z,20.17
2017-06-15T07:53:49.005Z,20.95
2017-06-15T07:54:49.015Z,21.63
2017-06-15T07:55:48.707Z,21.55
2017-06-15T07:56:49.052Z,21.35
2017-06-15T07:57:48.721Z,22.05
2017-06-15T07:58:49.086Z,20.87
2017-06-15T07:59:48.741Z,20.97
2017-06-15T08:00:49.075Z,20.09
2017-06-15T08:01:48.759Z,20.67
2017-06-15T08:02:49.091Z,21.06
2017-06-15T08:03:49.095Z,20.65
2017-06-15T08:04:49.105Z,21.23
2017-06-15T08:05:49.115Z,20.15
2017-06-15T08:06:49.123Z,21.52
2017-06-15T08:07:49.140Z,22.11
2017-06-15T08:08:49.142Z,21.03
2017-06-15T08:09:49.174Z,21.03
2017-06-15T08:10:49.159Z,21.42
2017-06-15T08:11:49.164Z,20.73
2017-06-15T08:12:49.180Z,20.84
2017-06-15T08:13:49.181Z,22.8
2017-06-15T08:14:49.190Z,21.81
2017-06-15T08:15:49.220Z,20.74
2017-06-15T08:16:48.884Z,21.03
2017-06-15T08:17:49.211Z,21.62
2017-06-15T08:18:48.895Z,22.59
2017-06-15T08:19:49.233Z,22.77
2017-06-15T08:20:49.237Z,21.88
2017-06-15T08:21:49.239Z,23.23
2017-06-15T08:22:49.246Z,24.49
2017-06-15T08:23:48.930Z,24.87
2017-06-15T08:24:48.936Z,26.59
2017-06-15T08:25:49.263Z,28.63
2017-06-15T08:26:48.969Z,28.61
2017-06-15T08:27:48.955Z,27.82
2017-06-15T08:28:48.962Z,28.19
2017-06-15T08:29:49.289Z,29.25
2017-06-15T08:30:49.293Z,34.38
2017-06-15T08:31:49.299Z,35.05
2017-06-15T08:32:49.307Z,36.3
2017-06-15T08:33:49.311Z,32.6
2017-06-15T08:34:49.316Z,34.16
2017-06-15T08:35:49.001Z,35.32
2017-06-15T08:36:49.004Z,32.78
2017-06-15T08:37:49.009Z,33.07
2017-06-15T08:38:49.348Z,36.85
2017-06-15T08:39:49.342Z,37.92
2017-06-15T08:40:49.037Z,33.75
2017-06-15T08:41:49.028Z,36.46
2017-06-15T08:42:49.359Z,36.18
2017-06-15T08:43:49.361Z,39.95
2017-06-15T08:44:49.366Z,40.44
2017-06-15T08:45:49.057Z,37.73
2017-06-15T08:46:49.396Z,34.74
2017-06-15T08:47:49.380Z,33.46
2017-06-15T08:48:49.387Z,32.78
2017-06-15T08:49:49.407Z,34.62
2017-06-15T08:50:49.412Z,36.74
2017-06-15T08:51:49.396Z,34.12
2017-06-15T08:52:49.403Z,35.59
2017-06-15T08:53:49.086Z,35.67
2017-06-15T08:54:49.091Z,34.72
2017-06-15T08:55:49.093Z,34.12
2017-06-15T08:56:49.422Z,35.86
2017-06-15T08:57:49.430Z,35.96
2017-06-15T08:58:49.430Z,35.96
2017-06-15T08:59:56.190Z,34.7
2017-06-15T09:00:49.117Z,34.61
2017-06-15T09:01:49.119Z,36.35
2017-06-15T09:02:49.448Z,34.8
2017-06-15T09:03:49.129Z,34.8
2017-06-15T09:04:49.138Z,35.09
2017-06-15T09:05:49.457Z,36.35
2017-06-15T09:06:49.466Z,36.16
2017-06-15T09:07:49.475Z,32.67
2017-06-15T09:08:49.473Z,34.51
2017-06-15T09:09:49.153Z,33.25
2017-06-15T09:10:49.478Z,34.99
2017-06-15T09:11:49.484Z,34.7
2017-06-15T09:12:49.486Z,35.85
2017-06-15T09:13:49.511Z,37.59
2017-06-15T09:14:49.495Z,34.88
2017-06-15T09:15:49.502Z,34.88
2017-06-15T09:16:49.503Z,37.01
2017-06-15T09:17:49.184Z,36.33
2017-06-15T09:18:49.190Z,37.49
2017-06-15T09:19:49.193Z,37.61
2017-06-15T09:20:49.198Z,38.39
2017-06-15T09:21:49.199Z,37.9
2017-06-15T09:22:49.216Z,35.09
2017-06-15T09:23:49.209Z,35.4
2017-06-15T09:24:49.214Z,36.25
2017-06-15T09:25:49.224Z,35.38
2017-06-15T09:26:49.542Z,37.13
2017-06-15T09:27:49.225Z,36.74
2017-06-15T09:28:49.226Z,36.25
2017-06-15T09:29:49.554Z,37.71
2017-06-15T09:30:49.236Z,39.26
2017-06-15T09:31:49.241Z,37.32
2017-06-15T09:32:49.248Z,36.74
2017-06-15T09:33:49.245Z,35.4
2017-06-15T09:34:49.253Z,35.69
2017-06-15T09:35:49.254Z,37.43
2017-06-15T09:36:49.256Z,36.95
2017-06-15T09:37:49.603Z,33.84
2017-06-15T09:38:49.265Z,34.51
2017-06-15T09:39:49.275Z,36.35
2017-06-15T09:40:49.278Z,35.4
2017-06-15T09:41:49.296Z,35.19
2017-06-15T09:42:49.281Z,35.57
2017-06-15T09:43:49.607Z,35.86
2017-06-15T09:44:49.612Z,38.09
2017-06-15T09:45:49.614Z,37.71
2017-06-15T09:46:49.620Z,37.23
2017-06-15T09:47:49.300Z,37.13
2017-06-15T09:48:49.630Z,34.8
2017-06-15T09:49:49.643Z,35.67
2017-06-15T09:50:49.633Z,36.06
2017-06-15T09:51:49.312Z,36.54
2017-06-15T09:52:49.661Z,36.25
2017-06-15T09:53:49.665Z,36.74
2017-06-15T09:54:49.682Z,37.13
2017-06-15T09:55:49.652Z,39.53
2017-06-15T09:56:49.658Z,36.54
2017-06-15T09:57:49.342Z,37.32
2017-06-15T09:58:49.661Z,38.19
2017-06-15T09:59:49.665Z,35.96
2017-06-15T10:00:49.671Z,36.35
2017-06-15T10:01:49.675Z,36.33
2017-06-15T10:02:49.355Z,38.29
2017-06-15T10:03:49.680Z,40.52
2017-06-15T10:04:49.691Z,38.78
2017-06-15T10:05:49.706Z,36.25
2017-06-15T10:06:49.367Z,37.9
2017-06-15T10:07:49.694Z,38.48
2017-06-15T10:08:49.697Z,39.36
2017-06-15T10:09:49.379Z,37.13
2017-06-15T10:10:49.704Z,37.51
2017-06-15T10:11:49.383Z,36.35
2017-06-15T10:12:49.713Z,38.48
2017-06-15T10:13:49.714Z,38.19
2017-06-15T10:14:49.399Z,37.51
2017-06-15T10:15:49.722Z,37.23
2017-06-15T10:16:49.405Z,38.19
2017-06-15T10:17:49.406Z,38.58
2017-06-15T10:18:49.740Z,38.58
2017-06-15T10:19:49.414Z,36.35
2017-06-15T10:20:49.419Z,39.55
2017-06-15T10:21:49.743Z,37.9
2017-06-15T10:22:49.748Z,37.51
2017-06-15T10:23:49.752Z,37.9
2017-06-15T10:24:49.756Z,37.71
2017-06-15T10:25:49.452Z,38.19
2017-06-15T10:26:49.761Z,35.86
2017-06-15T10:27:49.768Z,36.74
2017-06-15T10:28:49.768Z,36.74
2017-06-15T10:29:49.774Z,37.71
2017-06-15T10:30:49.775Z,37.9
2017-06-15T10:31:49.455Z,38.09
2017-06-15T10:32:49.781Z,38.19
2017-06-15T10:33:49.797Z,37.61
2017-06-15T10:34:49.805Z,37.03
2017-06-15T10:35:49.794Z,37.32
2017-06-15T10:36:49.815Z,37.51
2017-06-15T10:37:49.801Z,37.61
2017-06-15T10:38:49.807Z,36.85
2017-06-15T10:39:49.487Z,39.57
2017-06-15T10:40:49.538Z,36.25
2017-06-15T10:41:49.821Z,35.4
2017-06-15T10:42:49.822Z,34.91
2017-06-15T10:43:49.499Z,34.91
2017-06-15T10:44:49.504Z,35.78
2017-06-15T10:45:49.829Z,35.88
2017-06-15T10:46:49.832Z,36.36
2017-06-15T10:47:49.837Z,36.27
2017-06-15T10:48:49.841Z,38.02
2017-06-15T10:49:49.846Z,37.73
2017-06-15T10:50:49.845Z,37.05
2017-06-15T10:51:49.530Z,37.92
2017-06-15T10:52:49.854Z,38.12
2017-06-15T10:53:49.861Z,37.92
2017-06-15T10:54:49.863Z,37.34
2017-06-15T10:55:49.873Z,36.46
2017-06-15T10:56:49.871Z,34.91
2017-06-15T10:57:49.873Z,36.85
2017-06-15T10:58:49.878Z,38.23
2017-06-15T10:59:49.563Z,36
2017-06-15T11:00:49.885Z,35.4
2017-06-15T11:01:49.568Z,36.46
2017-06-15T11:02:49.894Z,36.95
2017-06-15T11:03:49.894Z,37.53
2017-06-15T11:04:49.902Z,35.88
2017-06-15T11:05:49.581Z,37.43
2017-06-15T11:06:49.928Z,37.34
2017-06-15T11:07:49.590Z,36.1
2017-06-15T11:08:49.930Z,35.9
2017-06-15T11:09:49.599Z,36.29
2017-06-15T11:10:49.599Z,36
2017-06-15T11:11:49.950Z,35.32
2017-06-15T11:12:49.608Z,35.71
2017-06-15T11:13:49.950Z,35.9
2017-06-15T11:14:49.942Z,34.17
2017-06-15T11:15:49.965Z,36.29
2017-06-15T11:16:49.627Z,33.86
2017-06-15T11:17:49.953Z,32.41
2017-06-15T11:18:49.967Z,32.99
2017-06-15T11:19:49.974Z,31.92
2017-06-15T11:20:49.963Z,33.75
2017-06-15T11:21:49.986Z,35.88
2017-06-15T11:22:49.654Z,37.24
2017-06-15T11:23:49.974Z,36.18
2017-06-15T11:24:49.659Z,34.91
2017-06-15T11:25:49.982Z,34.61
2017-06-15T11:26:49.989Z,36.16
2017-06-15T11:27:50.051Z,34.99
2017-06-15T11:28:49.992Z,37.71
2017-06-15T11:29:50.000Z,40.23
2017-06-15T11:30:50.045Z,37.41
2017-06-15T11:31:50.006Z,35.59
2017-06-15T11:32:50.010Z,36.56
2017-06-15T11:33:50.364Z,37.43
2017-06-15T11:34:50.017Z,36.27
2017-06-15T11:35:50.035Z,37.53
2017-06-15T11:36:50.043Z,38.6
2017-06-15T11:37:49.707Z,37.73
2017-06-15T11:38:50.043Z,36.27
2017-06-15T11:39:50.048Z,38.89
2017-06-15T11:40:50.063Z,39.18
2017-06-15T11:41:50.042Z,38.99
2017-06-15T11:42:50.069Z,38.31
2017-06-15T11:43:50.069Z,37.94
2017-06-15T11:44:50.069Z,36.1
2017-06-15T11:45:50.061Z,36.97
2017-06-15T11:46:49.738Z,36.38
2017-06-15T11:47:50.086Z,37.35
2017-06-15T11:48:50.089Z,34.06
2017-06-15T11:49:50.076Z,34.64
2017-06-15T11:50:49.760Z,37.94
2017-06-15T11:51:50.096Z,37.45
2017-06-15T11:52:50.131Z,35.03
2017-06-15T11:53:50.100Z,36.38
2017-06-15T11:54:50.124Z,36.38
2017-06-15T11:55:49.777Z,37.43
2017-06-15T11:56:50.104Z,38.02
2017-06-15T11:57:50.106Z,37.73
2017-06-15T11:58:49.790Z,37.34
2017-06-15T11:59:50.116Z,37.82
2017-06-15T12:00:50.157Z,35.21
2017-06-15T12:01:50.130Z,36.08
2017-06-15T12:02:49.805Z,34.81
2017-06-15T12:03:49.811Z,37.24
2017-06-15T12:04:50.137Z,36.48
2017-06-15T12:05:50.179Z,36.38
2017-06-15T12:06:50.167Z,34.64
2017-06-15T12:07:49.827Z,34.74
2017-06-15T12:08:49.829Z,34.93
2017-06-15T12:09:50.172Z,37.35
2017-06-15T12:10:50.177Z,37.35
2017-06-15T12:11:49.853Z,36.38
2017-06-15T12:12:50.166Z,35.71
2017-06-15T12:13:50.175Z,35.9
2017-06-15T12:14:49.871Z,36.11
2017-06-15T12:15:50.195Z,35.82
2017-06-15T12:16:49.862Z,37.28
2017-06-15T12:17:49.871Z,36.3
2017-06-15T12:18:49.873Z,34.09
2017-06-15T12:19:50.199Z,35.35
2017-06-15T12:20:50.210Z,35.05
2017-06-15T12:21:50.215Z,32.42
2017-06-15T12:22:50.239Z,33.29
2017-06-15T12:23:50.229Z,34.17
2017-06-15T12:24:50.220Z,35.05
2017-06-15T12:25:50.242Z,33.61
2017-06-15T12:26:50.229Z,33.22
2017-06-15T12:27:50.253Z,35.06
2017-06-15T12:28:50.239Z,35.06
2017-06-15T12:29:50.240Z,33.7
2017-06-15T12:30:50.251Z,32.82
2017-06-15T12:31:50.274Z,32.34
2017-06-15T12:32:50.292Z,32.44
2017-06-15T12:33:49.938Z,31.27
2017-06-15T12:34:50.274Z,30.5
2017-06-15T12:35:50.283Z,32.05
2017-06-15T12:36:49.972Z,31.66
2017-06-15T12:37:50.278Z,31.66
2017-06-15T12:38:50.298Z,29.33
2017-06-15T12:39:50.290Z,30
2017-06-15T12:40:50.292Z,30.01
2017-06-15T12:41:49.977Z,29.12
2017-06-15T12:42:50.032Z,30.5
2017-06-15T12:43:50.308Z,29.04
2017-06-15T12:44:49.990Z,30.48
2017-06-15T12:45:50.318Z,28.83
2017-06-15T12:46:50.320Z,28.05
2017-06-15T12:47:50.325Z,28.15
2017-06-15T12:48:50.011Z,30.87
2017-06-15T12:49:50.009Z,30.47
2017-06-15T12:50:50.343Z,30
2017-06-15T12:51:50.057Z,30.58
2017-06-15T12:52:50.345Z,30.58
2017-06-15T12:53:50.353Z,29.12
2017-06-15T12:54:50.361Z,28.64